sensor_id;sensor_type;location;lat;lon;timestamp;P1;durP1;ratioP1;P2;durP2;ratioP2
76073;SDS011;64776;42.636;24.358;2023-11-19T00:00:23;3.85;;;1.20;;
76073;SDS011;64776;42.636;24.358;2023-11-19T00:03:25;1.67;;;0.40;;
76073;SDS011;64776;42.636;24.358;2023-11-19T00:06:25;1.38;;;0.80;;
76073;SDS011;64776;42.636;24.358;2023-11-19T00:09:26;3.88;;;0.82;;
76073;SDS011;64776;42.636;24.358;2023-11-19T00:12:27;1.88;;;0.68;;
76073;SDS011;64776;42.636;24.358;2023-11-19T00:15:28;0.88;;;0.20;;
76073;SDS011;64776;42.636;24.358;2023-11-19T00:18:30;1.00;;;0.30;;
76073;SDS011;64776;42.636;24.358;2023-11-19T00:21:31;1.55;;;0.68;;
76073;SDS011;64776;42.636;24.358;2023-11-19T00:24:31;2.90;;;0.73;;
76073;SDS011;64776;42.636;24.358;2023-11-19T00:27:32;2.28;;;0.77;;
76073;SDS011;64776;42.636;24.358;2023-11-19T00:30:33;2.97;;;1.50;;
76073;SDS011;64776;42.636;24.358;2023-11-19T00:33:35;2.58;;;0.98;;
76073;SDS011;64776;42.636;24.358;2023-11-19T00:36:35;3.47;;;1.15;;
76073;SDS011;64776;42.636;24.358;2023-11-19T00:39:36;1.95;;;0.50;;
76073;SDS011;64776;42.636;24.358;2023-11-19T00:42:37;2.17;;;0.40;;
76073;SDS011;64776;42.636;24.358;2023-11-19T00:45:38;5.60;;;0.60;;
76073;SDS011;64776;42.636;24.358;2023-11-19T00:48:40;2.15;;;0.75;;
76073;SDS011;64776;42.636;24.358;2023-11-19T00:51:41;0.98;;;0.35;;
76073;SDS011;64776;42.636;24.358;2023-11-19T00:54:42;2.88;;;1.10;;
76073;SDS011;64776;42.636;24.358;2023-11-19T00:57:42;1.70;;;0.43;;
76073;SDS011;64776;42.636;24.358;2023-11-19T01:00:43;2.20;;;0.50;;
76073;SDS011;64776;42.636;24.358;2023-11-19T01:03:45;1.60;;;0.68;;
76073;SDS011;64776;42.636;24.358;2023-11-19T01:06:46;3.25;;;0.93;;
76073;SDS011;64776;42.636;24.358;2023-11-19T01:09:47;4.05;;;1.25;;
76073;SDS011;64776;42.636;24.358;2023-11-19T01:12:47;2.38;;;0.93;;
76073;SDS011;64776;42.636;24.358;2023-11-19T01:15:48;1.90;;;0.80;;
76073;SDS011;64776;42.636;24.358;2023-11-19T01:18:51;1.92;;;0.85;;
76073;SDS011;64776;42.636;24.358;2023-11-19T01:21:52;3.13;;;1.27;;
76073;SDS011;64776;42.636;24.358;2023-11-19T01:24:53;5.30;;;1.90;;
76073;SDS011;64776;42.636;24.358;2023-11-19T01:27:53;1.15;;;0.45;;
76073;SDS011;64776;42.636;24.358;2023-11-19T01:30:54;1.50;;;0.60;;
76073;SDS011;64776;42.636;24.358;2023-11-19T01:33:56;1.48;;;0.45;;
76073;SDS011;64776;42.636;24.358;2023-11-19T01:36:57;2.67;;;0.70;;
76073;SDS011;64776;42.636;24.358;2023-11-19T01:39:58;2.53;;;0.70;;
76073;SDS011;64776;42.636;24.358;2023-11-19T01:42:59;3.60;;;1.10;;
76073;SDS011;64776;42.636;24.358;2023-11-19T01:46:00;4.13;;;1.17;;
76073;SDS011;64776;42.636;24.358;2023-11-19T01:49:02;2.30;;;0.82;;
76073;SDS011;64776;42.636;24.358;2023-11-19T01:52:05;1.85;;;0.65;;
76073;SDS011;64776;42.636;24.358;2023-11-19T01:55:06;5.53;;;1.67;;
76073;SDS011;64776;42.636;24.358;2023-11-19T02:10:14;1.77;;;1.25;;
76073;SDS011;64776;42.636;24.358;2023-11-19T02:13:15;2.58;;;1.05;;
76073;SDS011;64776;42.636;24.358;2023-11-19T02:16:16;2.58;;;0.60;;
76073;SDS011;64776;42.636;24.358;2023-11-19T02:19:18;2.25;;;0.82;;
76073;SDS011;64776;42.636;24.358;2023-11-19T02:22:19;2.45;;;0.73;;
76073;SDS011;64776;42.636;24.358;2023-11-19T02:25:23;1.80;;;0.57;;
76073;SDS011;64776;42.636;24.358;2023-11-19T02:28:31;1.88;;;0.63;;
76073;SDS011;64776;42.636;24.358;2023-11-19T02:31:32;1.30;;;0.63;;
76073;SDS011;64776;42.636;24.358;2023-11-19T02:34:33;1.92;;;0.80;;
76073;SDS011;64776;42.636;24.358;2023-11-19T02:37:34;1.05;;;0.40;;
76073;SDS011;64776;42.636;24.358;2023-11-19T02:40:35;2.58;;;0.60;;
76073;SDS011;64776;42.636;24.358;2023-11-19T02:43:37;1.38;;;0.65;;
76073;SDS011;64776;42.636;24.358;2023-11-19T02:46:38;3.78;;;1.83;;
76073;SDS011;64776;42.636;24.358;2023-11-19T02:49:38;2.20;;;0.68;;
76073;SDS011;64776;42.636;24.358;2023-11-19T02:52:39;3.78;;;1.52;;
76073;SDS011;64776;42.636;24.358;2023-11-19T02:55:40;1.85;;;0.68;;
76073;SDS011;64776;42.636;24.358;2023-11-19T02:58:43;1.95;;;0.82;;
76073;SDS011;64776;42.636;24.358;2023-11-19T03:01:44;1.42;;;0.63;;
76073;SDS011;64776;42.636;24.358;2023-11-19T03:04:45;3.83;;;1.88;;
76073;SDS011;64776;42.636;24.358;2023-11-19T03:07:46;7.10;;;2.85;;
76073;SDS011;64776;42.636;24.358;2023-11-19T03:10:46;12.32;;;4.10;;
76073;SDS011;64776;42.636;24.358;2023-11-19T03:13:49;6.07;;;1.77;;
76073;SDS011;64776;42.636;24.358;2023-11-19T03:16:49;8.07;;;3.70;;
76073;SDS011;64776;42.636;24.358;2023-11-19T03:19:50;13.68;;;4.13;;
76073;SDS011;64776;42.636;24.358;2023-11-19T03:22:51;16.15;;;4.75;;
76073;SDS011;64776;42.636;24.358;2023-11-19T03:25:51;10.07;;;3.67;;
76073;SDS011;64776;42.636;24.358;2023-11-19T03:28:54;34.97;;;10.70;;
76073;SDS011;64776;42.636;24.358;2023-11-19T03:31:54;5.75;;;2.05;;
76073;SDS011;64776;42.636;24.358;2023-11-19T03:34:55;31.75;;;12.65;;
76073;SDS011;64776;42.636;24.358;2023-11-19T03:37:56;13.23;;;6.15;;
76073;SDS011;64776;42.636;24.358;2023-11-19T03:40:57;8.05;;;2.88;;
76073;SDS011;64776;42.636;24.358;2023-11-19T03:43:59;8.43;;;4.03;;
76073;SDS011;64776;42.636;24.358;2023-11-19T03:47:00;5.65;;;2.47;;
76073;SDS011;64776;42.636;24.358;2023-11-19T03:50:00;1.45;;;0.45;;
76073;SDS011;64776;42.636;24.358;2023-11-19T03:53:02;2.38;;;0.80;;
76073;SDS011;64776;42.636;24.358;2023-11-19T03:56:03;2.63;;;0.82;;
76073;SDS011;64776;42.636;24.358;2023-11-19T03:59:05;1.63;;;0.68;;
76073;SDS011;64776;42.636;24.358;2023-11-19T04:02:06;2.35;;;0.93;;
76073;SDS011;64776;42.636;24.358;2023-11-19T04:05:07;2.65;;;1.50;;
76073;SDS011;64776;42.636;24.358;2023-11-19T04:08:08;2.72;;;1.08;;
76073;SDS011;64776;42.636;24.358;2023-11-19T04:11:09;5.45;;;1.02;;
76073;SDS011;64776;42.636;24.358;2023-11-19T04:14:11;2.47;;;1.30;;
76073;SDS011;64776;42.636;24.358;2023-11-19T04:17:11;2.10;;;0.70;;
76073;SDS011;64776;42.636;24.358;2023-11-19T04:20:12;1.85;;;0.50;;
76073;SDS011;64776;42.636;24.358;2023-11-19T04:23:13;2.97;;;0.82;;
76073;SDS011;64776;42.636;24.358;2023-11-19T04:26:14;2.38;;;0.85;;
76073;SDS011;64776;42.636;24.358;2023-11-19T04:29:16;2.40;;;0.45;;
76073;SDS011;64776;42.636;24.358;2023-11-19T04:32:17;2.38;;;0.93;;
76073;SDS011;64776;42.636;24.358;2023-11-19T04:35:18;1.48;;;0.57;;
76073;SDS011;64776;42.636;24.358;2023-11-19T04:38:18;2.70;;;1.08;;
76073;SDS011;64776;42.636;24.358;2023-11-19T04:41:19;4.53;;;1.17;;
76073;SDS011;64776;42.636;24.358;2023-11-19T04:44:21;4.05;;;1.58;;
76073;SDS011;64776;42.636;24.358;2023-11-19T04:47:22;2.10;;;0.90;;
76073;SDS011;64776;42.636;24.358;2023-11-19T04:50:23;2.25;;;0.82;;
76073;SDS011;64776;42.636;24.358;2023-11-19T04:53:23;1.58;;;0.90;;
76073;SDS011;64776;42.636;24.358;2023-11-19T04:56:24;4.15;;;1.45;;
76073;SDS011;64776;42.636;24.358;2023-11-19T04:59:26;3.33;;;1.13;;
76073;SDS011;64776;42.636;24.358;2023-11-19T05:02:27;3.28;;;0.98;;
76073;SDS011;64776;42.636;24.358;2023-11-19T05:05:28;1.90;;;0.68;;
76073;SDS011;64776;42.636;24.358;2023-11-19T05:08:28;5.55;;;1.98;;
76073;SDS011;64776;42.636;24.358;2023-11-19T05:11:29;4.55;;;1.58;;
76073;SDS011;64776;42.636;24.358;2023-11-19T05:14:31;2.40;;;0.90;;
76073;SDS011;64776;42.636;24.358;2023-11-19T05:17:32;3.63;;;1.23;;
76073;SDS011;64776;42.636;24.358;2023-11-19T05:20:33;4.03;;;0.80;;
76073;SDS011;64776;42.636;24.358;2023-11-19T05:23:34;3.17;;;0.90;;
76073;SDS011;64776;42.636;24.358;2023-11-19T05:26:34;2.60;;;1.10;;
76073;SDS011;64776;42.636;24.358;2023-11-19T05:29:37;6.32;;;1.45;;
76073;SDS011;64776;42.636;24.358;2023-11-19T05:32:38;3.20;;;1.48;;
76073;SDS011;64776;42.636;24.358;2023-11-19T05:35:38;2.92;;;0.80;;
76073;SDS011;64776;42.636;24.358;2023-11-19T05:38:39;2.15;;;0.85;;
76073;SDS011;64776;42.636;24.358;2023-11-19T05:41:40;15.85;;;6.15;;
76073;SDS011;64776;42.636;24.358;2023-11-19T05:44:42;7.88;;;2.78;;
76073;SDS011;64776;42.636;24.358;2023-11-19T05:47:43;12.02;;;2.55;;
76073;SDS011;64776;42.636;24.358;2023-11-19T05:50:44;87.28;;;36.35;;
76073;SDS011;64776;42.636;24.358;2023-11-19T05:53:45;209.90;;;89.85;;
76073;SDS011;64776;42.636;24.358;2023-11-19T05:56:47;33.85;;;21.85;;
76073;SDS011;64776;42.636;24.358;2023-11-19T05:59:49;14.43;;;8.48;;
76073;SDS011;64776;42.636;24.358;2023-11-19T06:02:50;5.60;;;2.15;;
76073;SDS011;64776;42.636;24.358;2023-11-19T06:05:51;17.75;;;5.13;;
76073;SDS011;64776;42.636;24.358;2023-11-19T06:08:52;1.20;;;0.73;;
76073;SDS011;64776;42.636;24.358;2023-11-19T06:11:53;4.25;;;1.95;;
76073;SDS011;64776;42.636;24.358;2023-11-19T06:14:55;4.32;;;2.58;;
76073;SDS011;64776;42.636;24.358;2023-11-19T06:17:56;4.70;;;2.40;;
76073;SDS011;64776;42.636;24.358;2023-11-19T06:20:56;5.88;;;2.38;;
76073;SDS011;64776;42.636;24.358;2023-11-19T06:23:57;4.32;;;1.40;;
76073;SDS011;64776;42.636;24.358;2023-11-19T06:26:59;4.65;;;1.38;;
76073;SDS011;64776;42.636;24.358;2023-11-19T06:30:01;5.90;;;2.05;;
76073;SDS011;64776;42.636;24.358;2023-11-19T06:33:02;21.45;;;10.48;;
76073;SDS011;64776;42.636;24.358;2023-11-19T06:36:03;19.35;;;9.70;;
76073;SDS011;64776;42.636;24.358;2023-11-19T06:39:04;6.43;;;3.22;;
76073;SDS011;64776;42.636;24.358;2023-11-19T06:42:05;5.63;;;2.42;;
76073;SDS011;64776;42.636;24.358;2023-11-19T06:45:08;15.18;;;7.35;;
76073;SDS011;64776;42.636;24.358;2023-11-19T06:48:09;3.92;;;1.65;;
76073;SDS011;64776;42.636;24.358;2023-11-19T06:51:10;5.53;;;2.78;;
76073;SDS011;64776;42.636;24.358;2023-11-19T06:54:10;5.13;;;1.75;;
76073;SDS011;64776;42.636;24.358;2023-11-19T06:57:11;10.07;;;4.78;;
76073;SDS011;64776;42.636;24.358;2023-11-19T07:04:11;7.28;;;3.28;;
76073;SDS011;64776;42.636;24.358;2023-11-19T07:07:13;10.82;;;4.70;;
76073;SDS011;64776;42.636;24.358;2023-11-19T07:10:14;10.15;;;3.75;;
76073;SDS011;64776;42.636;24.358;2023-11-19T07:13:15;5.88;;;2.10;;
76073;SDS011;64776;42.636;24.358;2023-11-19T07:16:15;6.20;;;2.80;;
76073;SDS011;64776;42.636;24.358;2023-11-19T07:19:18;5.65;;;1.77;;
76073;SDS011;64776;42.636;24.358;2023-11-19T07:22:18;13.38;;;7.13;;
76073;SDS011;64776;42.636;24.358;2023-11-19T07:25:19;6.88;;;1.50;;
76073;SDS011;64776;42.636;24.358;2023-11-19T07:28:20;7.40;;;2.10;;
76073;SDS011;64776;42.636;24.358;2023-11-19T07:31:21;6.18;;;3.72;;
76073;SDS011;64776;42.636;24.358;2023-11-19T07:34:23;12.75;;;7.18;;
76073;SDS011;64776;42.636;24.358;2023-11-19T07:37:24;28.08;;;12.73;;
76073;SDS011;64776;42.636;24.358;2023-11-19T07:40:25;53.13;;;26.35;;
76073;SDS011;64776;42.636;24.358;2023-11-19T07:43:26;57.80;;;40.38;;
76073;SDS011;64776;42.636;24.358;2023-11-19T07:58:36;8.63;;;3.08;;
76073;SDS011;64776;42.636;24.358;2023-11-19T08:01:57;9.07;;;4.55;;
76073;SDS011;64776;42.636;24.358;2023-11-19T08:04:58;4.65;;;2.08;;
76073;SDS011;64776;42.636;24.358;2023-11-19T08:07:58;7.40;;;3.30;;
76073;SDS011;64776;42.636;24.358;2023-11-19T08:10:59;8.07;;;4.53;;
76073;SDS011;64776;42.636;24.358;2023-11-19T08:14:02;12.68;;;4.40;;
76073;SDS011;64776;42.636;24.358;2023-11-19T08:17:03;58.42;;;24.40;;
76073;SDS011;64776;42.636;24.358;2023-11-19T08:20:05;18.20;;;7.25;;
76073;SDS011;64776;42.636;24.358;2023-11-19T08:23:07;25.67;;;9.02;;
76073;SDS011;64776;42.636;24.358;2023-11-19T08:26:07;21.55;;;10.35;;
76073;SDS011;64776;42.636;24.358;2023-11-19T08:29:10;60.47;;;32.33;;
76073;SDS011;64776;42.636;24.358;2023-11-19T08:32:10;30.92;;;15.88;;
76073;SDS011;64776;42.636;24.358;2023-11-19T08:35:11;25.05;;;13.02;;
76073;SDS011;64776;42.636;24.358;2023-11-19T08:38:12;13.25;;;3.92;;
76073;SDS011;64776;42.636;24.358;2023-11-19T08:41:13;49.20;;;19.70;;
76073;SDS011;64776;42.636;24.358;2023-11-19T08:44:15;33.13;;;12.80;;
76073;SDS011;64776;42.636;24.358;2023-11-19T08:47:15;63.42;;;28.67;;
76073;SDS011;64776;42.636;24.358;2023-11-19T08:50:16;26.25;;;11.50;;
76073;SDS011;64776;42.636;24.358;2023-11-19T08:53:17;3.90;;;1.38;;
76073;SDS011;64776;42.636;24.358;2023-11-19T08:56:18;90.28;;;40.90;;
76073;SDS011;64776;42.636;24.358;2023-11-19T08:59:20;21.27;;;9.40;;
76073;SDS011;64776;42.636;24.358;2023-11-19T09:02:21;108.22;;;44.97;;
76073;SDS011;64776;42.636;24.358;2023-11-19T09:05:21;115.45;;;39.72;;
76073;SDS011;64776;42.636;24.358;2023-11-19T09:08:22;237.15;;;84.07;;
76073;SDS011;64776;42.636;24.358;2023-11-19T09:11:23;225.10;;;78.85;;
76073;SDS011;64776;42.636;24.358;2023-11-19T09:14:25;52.58;;;18.60;;
76073;SDS011;64776;42.636;24.358;2023-11-19T09:17:26;83.05;;;32.63;;
76073;SDS011;64776;42.636;24.358;2023-11-19T09:20:27;58.40;;;27.98;;
76073;SDS011;64776;42.636;24.358;2023-11-19T09:23:27;31.60;;;13.88;;
76073;SDS011;64776;42.636;24.358;2023-11-19T09:26:28;14.60;;;6.22;;
76073;SDS011;64776;42.636;24.358;2023-11-19T09:29:32;13.77;;;6.03;;
76073;SDS011;64776;42.636;24.358;2023-11-19T09:32:33;21.42;;;9.85;;
76073;SDS011;64776;42.636;24.358;2023-11-19T09:35:34;38.75;;;17.88;;
76073;SDS011;64776;42.636;24.358;2023-11-19T09:38:35;60.27;;;25.17;;
76073;SDS011;64776;42.636;24.358;2023-11-19T09:41:36;13.25;;;4.47;;
76073;SDS011;64776;42.636;24.358;2023-11-19T09:44:38;13.27;;;6.68;;
76073;SDS011;64776;42.636;24.358;2023-11-19T09:47:40;36.42;;;16.33;;
76073;SDS011;64776;42.636;24.358;2023-11-19T09:50:41;80.55;;;34.50;;
76073;SDS011;64776;42.636;24.358;2023-11-19T09:53:42;9.05;;;5.28;;
76073;SDS011;64776;42.636;24.358;2023-11-19T09:56:43;5.65;;;1.75;;
76073;SDS011;64776;42.636;24.358;2023-11-19T09:59:45;34.22;;;18.30;;
76073;SDS011;64776;42.636;24.358;2023-11-19T10:02:47;6.30;;;2.63;;
76073;SDS011;64776;42.636;24.358;2023-11-19T10:05:49;10.32;;;2.70;;
76073;SDS011;64776;42.636;24.358;2023-11-19T10:08:50;4.45;;;2.33;;
76073;SDS011;64776;42.636;24.358;2023-11-19T10:11:51;11.57;;;4.90;;
76073;SDS011;64776;42.636;24.358;2023-11-19T10:14:53;6.97;;;2.80;;
76073;SDS011;64776;42.636;24.358;2023-11-19T10:17:56;7.68;;;2.70;;
76073;SDS011;64776;42.636;24.358;2023-11-19T10:20:58;3.83;;;1.83;;
76073;SDS011;64776;42.636;24.358;2023-11-19T10:23:59;15.35;;;7.85;;
76073;SDS011;64776;42.636;24.358;2023-11-19T10:26:59;23.83;;;10.05;;
76073;SDS011;64776;42.636;24.358;2023-11-19T10:30:02;18.35;;;11.18;;
76073;SDS011;64776;42.636;24.358;2023-11-19T10:33:03;6.47;;;2.70;;
76073;SDS011;64776;42.636;24.358;2023-11-19T10:36:05;49.08;;;23.48;;
76073;SDS011;64776;42.636;24.358;2023-11-19T10:39:07;48.28;;;23.80;;
76073;SDS011;64776;42.636;24.358;2023-11-19T10:42:14;60.13;;;28.50;;
76073;SDS011;64776;42.636;24.358;2023-11-19T10:45:23;52.75;;;25.98;;
76073;SDS011;64776;42.636;24.358;2023-11-19T10:56:20;38.05;;;19.63;;
76073;SDS011;64776;42.636;24.358;2023-11-19T10:59:30;56.15;;;30.50;;
76073;SDS011;64776;42.636;24.358;2023-11-19T11:02:33;42.20;;;19.90;;
76073;SDS011;64776;42.636;24.358;2023-11-19T11:05:41;59.15;;;27.83;;
76073;SDS011;64776;42.636;24.358;2023-11-19T11:08:42;53.28;;;26.25;;
76073;SDS011;64776;42.636;24.358;2023-11-19T11:11:44;88.78;;;37.78;;
76073;SDS011;64776;42.636;24.358;2023-11-19T11:14:47;8.98;;;4.63;;
76073;SDS011;64776;42.636;24.358;2023-11-19T11:17:50;95.72;;;49.65;;
76073;SDS011;64776;42.636;24.358;2023-11-19T11:21:05;22.75;;;9.98;;
76073;SDS011;64776;42.636;24.358;2023-11-19T11:24:23;65.10;;;33.63;;
76073;SDS011;64776;42.636;24.358;2023-11-19T11:27:42;19.17;;;6.47;;
76073;SDS011;64776;42.636;24.358;2023-11-19T11:31:08;104.03;;;50.85;;
76073;SDS011;64776;42.636;24.358;2023-11-19T11:34:29;49.22;;;25.33;;
76073;SDS011;64776;42.636;24.358;2023-11-19T11:37:56;36.75;;;13.63;;
76073;SDS011;64776;42.636;24.358;2023-11-19T11:41:20;19.90;;;8.23;;
76073;SDS011;64776;42.636;24.358;2023-11-19T11:44:33;76.28;;;27.65;;
76073;SDS011;64776;42.636;24.358;2023-11-19T11:48:10;33.97;;;16.17;;
76073;SDS011;64776;42.636;24.358;2023-11-19T11:51:22;38.65;;;14.98;;
76073;SDS011;64776;42.636;24.358;2023-11-19T11:55:04;23.65;;;14.77;;
76073;SDS011;64776;42.636;24.358;2023-11-19T11:58:05;27.50;;;14.73;;
76073;SDS011;64776;42.636;24.358;2023-11-19T12:01:06;25.48;;;14.02;;
76073;SDS011;64776;42.636;24.358;2023-11-19T12:04:07;35.80;;;20.67;;
76073;SDS011;64776;42.636;24.358;2023-11-19T12:07:13;18.27;;;6.70;;
76073;SDS011;64776;42.636;24.358;2023-11-19T12:13:16;29.88;;;10.32;;
76073;SDS011;64776;42.636;24.358;2023-11-19T12:16:17;21.42;;;8.75;;
76073;SDS011;64776;42.636;24.358;2023-11-19T12:19:18;37.97;;;17.40;;
76073;SDS011;64776;42.636;24.358;2023-11-19T12:22:21;61.28;;;31.60;;
76073;SDS011;64776;42.636;24.358;2023-11-19T12:25:24;17.08;;;10.05;;
76073;SDS011;64776;42.636;24.358;2023-11-19T12:28:25;16.75;;;8.90;;
76073;SDS011;64776;42.636;24.358;2023-11-19T12:31:26;16.27;;;8.95;;
76073;SDS011;64776;42.636;24.358;2023-11-19T12:34:27;16.80;;;8.77;;
76073;SDS011;64776;42.636;24.358;2023-11-19T12:37:29;62.80;;;27.70;;
76073;SDS011;64776;42.636;24.358;2023-11-19T12:40:30;15.52;;;6.63;;
76073;SDS011;64776;42.636;24.358;2023-11-19T12:43:30;6.70;;;2.83;;
76073;SDS011;64776;42.636;24.358;2023-11-19T12:46:37;123.18;;;54.58;;
76073;SDS011;64776;42.636;24.358;2023-11-19T12:49:38;12.50;;;5.25;;
76073;SDS011;64776;42.636;24.358;2023-11-19T12:52:40;23.70;;;16.70;;
76073;SDS011;64776;42.636;24.358;2023-11-19T12:55:41;15.45;;;8.10;;
76073;SDS011;64776;42.636;24.358;2023-11-19T12:58:42;11.40;;;4.97;;
76073;SDS011;64776;42.636;24.358;2023-11-19T13:01:53;62.53;;;22.40;;
76073;SDS011;64776;42.636;24.358;2023-11-19T13:04:54;18.55;;;8.57;;
76073;SDS011;64776;42.636;24.358;2023-11-19T13:08:00;24.88;;;10.77;;
76073;SDS011;64776;42.636;24.358;2023-11-19T13:11:01;17.95;;;7.75;;
76073;SDS011;64776;42.636;24.358;2023-11-19T13:14:03;12.82;;;6.75;;
76073;SDS011;64776;42.636;24.358;2023-11-19T13:17:04;15.30;;;7.18;;
76073;SDS011;64776;42.636;24.358;2023-11-19T13:20:06;16.63;;;7.70;;
76073;SDS011;64776;42.636;24.358;2023-11-19T13:23:08;29.42;;;9.13;;
76073;SDS011;64776;42.636;24.358;2023-11-19T13:26:09;16.83;;;6.68;;
76073;SDS011;64776;42.636;24.358;2023-11-19T13:29:10;29.70;;;11.15;;
76073;SDS011;64776;42.636;24.358;2023-11-19T13:32:10;89.47;;;46.13;;
76073;SDS011;64776;42.636;24.358;2023-11-19T13:35:11;57.60;;;22.98;;
76073;SDS011;64776;42.636;24.358;2023-11-19T13:38:13;74.00;;;31.13;;
76073;SDS011;64776;42.636;24.358;2023-11-19T13:41:14;76.65;;;32.30;;
76073;SDS011;64776;42.636;24.358;2023-11-19T13:44:15;30.42;;;12.65;;
76073;SDS011;64776;42.636;24.358;2023-11-19T13:47:16;19.13;;;10.38;;
76073;SDS011;64776;42.636;24.358;2023-11-19T13:50:17;43.80;;;22.25;;
76073;SDS011;64776;42.636;24.358;2023-11-19T13:53:19;57.25;;;24.83;;
76073;SDS011;64776;42.636;24.358;2023-11-19T13:56:20;183.10;;;57.60;;
76073;SDS011;64776;42.636;24.358;2023-11-19T13:59:20;178.90;;;72.38;;
76073;SDS011;64776;42.636;24.358;2023-11-19T14:02:21;45.63;;;16.27;;
76073;SDS011;64776;42.636;24.358;2023-11-19T14:05:22;55.28;;;19.25;;
76073;SDS011;64776;42.636;24.358;2023-11-19T14:08:24;56.17;;;26.05;;
76073;SDS011;64776;42.636;24.358;2023-11-19T14:11:25;36.83;;;16.02;;
76073;SDS011;64776;42.636;24.358;2023-11-19T14:14:25;15.52;;;9.70;;
76073;SDS011;64776;42.636;24.358;2023-11-19T14:17:26;17.98;;;11.50;;
76073;SDS011;64776;42.636;24.358;2023-11-19T14:20:27;16.17;;;9.45;;
76073;SDS011;64776;42.636;24.358;2023-11-19T14:23:29;117.82;;;48.63;;
76073;SDS011;64776;42.636;24.358;2023-11-19T14:26:30;53.95;;;27.80;;
76073;SDS011;64776;42.636;24.358;2023-11-19T14:29:30;28.02;;;13.15;;
76073;SDS011;64776;42.636;24.358;2023-11-19T14:32:31;40.20;;;19.95;;
76073;SDS011;64776;42.636;24.358;2023-11-19T14:35:32;20.17;;;9.10;;
76073;SDS011;64776;42.636;24.358;2023-11-19T14:38:34;38.65;;;17.33;;
76073;SDS011;64776;42.636;24.358;2023-11-19T14:41:35;16.67;;;7.97;;
76073;SDS011;64776;42.636;24.358;2023-11-19T14:44:35;31.33;;;15.27;;
76073;SDS011;64776;42.636;24.358;2023-11-19T14:47:36;27.00;;;10.63;;
76073;SDS011;64776;42.636;24.358;2023-11-19T14:50:37;23.08;;;10.40;;
76073;SDS011;64776;42.636;24.358;2023-11-19T14:53:39;16.63;;;5.20;;
76073;SDS011;64776;42.636;24.358;2023-11-19T14:56:40;15.07;;;5.60;;
76073;SDS011;64776;42.636;24.358;2023-11-19T14:59:40;38.80;;;19.13;;
76073;SDS011;64776;42.636;24.358;2023-11-19T15:02:41;12.98;;;6.95;;
76073;SDS011;64776;42.636;24.358;2023-11-19T15:05:42;23.63;;;8.90;;
76073;SDS011;64776;42.636;24.358;2023-11-19T15:08:44;14.18;;;6.63;;
76073;SDS011;64776;42.636;24.358;2023-11-19T15:11:45;14.15;;;7.38;;
76073;SDS011;64776;42.636;24.358;2023-11-19T15:14:45;14.15;;;5.80;;
76073;SDS011;64776;42.636;24.358;2023-11-19T15:17:46;13.02;;;5.10;;
76073;SDS011;64776;42.636;24.358;2023-11-19T15:20:47;21.65;;;10.00;;
76073;SDS011;64776;42.636;24.358;2023-11-19T15:23:49;10.82;;;4.68;;
76073;SDS011;64776;42.636;24.358;2023-11-19T15:26:50;11.93;;;4.38;;
76073;SDS011;64776;42.636;24.358;2023-11-19T15:29:51;13.68;;;7.35;;
76073;SDS011;64776;42.636;24.358;2023-11-19T15:32:51;12.88;;;6.68;;
76073;SDS011;64776;42.636;24.358;2023-11-19T15:35:52;35.08;;;20.63;;
76073;SDS011;64776;42.636;24.358;2023-11-19T15:38:54;14.35;;;7.47;;
76073;SDS011;64776;42.636;24.358;2023-11-19T15:41:55;14.07;;;7.82;;
76073;SDS011;64776;42.636;24.358;2023-11-19T15:44:56;40.95;;;20.45;;
76073;SDS011;64776;42.636;24.358;2023-11-19T15:47:57;23.15;;;9.27;;
76073;SDS011;64776;42.636;24.358;2023-11-19T15:50:57;15.85;;;7.57;;
76073;SDS011;64776;42.636;24.358;2023-11-19T15:54:00;48.35;;;24.13;;
76073;SDS011;64776;42.636;24.358;2023-11-19T15:57:00;49.35;;;23.88;;
76073;SDS011;64776;42.636;24.358;2023-11-19T16:00:01;22.05;;;10.07;;
76073;SDS011;64776;42.636;24.358;2023-11-19T16:03:02;24.73;;;11.55;;
76073;SDS011;64776;42.636;24.358;2023-11-19T16:06:03;35.92;;;17.35;;
76073;SDS011;64776;42.636;24.358;2023-11-19T16:09:05;45.67;;;21.70;;
76073;SDS011;64776;42.636;24.358;2023-11-19T16:12:06;16.17;;;9.70;;
76073;SDS011;64776;42.636;24.358;2023-11-19T16:15:07;13.48;;;6.90;;
76073;SDS011;64776;42.636;24.358;2023-11-19T16:18:08;13.82;;;6.95;;
76073;SDS011;64776;42.636;24.358;2023-11-19T16:21:09;10.82;;;5.28;;
76073;SDS011;64776;42.636;24.358;2023-11-19T16:24:11;12.35;;;5.60;;
76073;SDS011;64776;42.636;24.358;2023-11-19T16:27:12;34.17;;;20.73;;
76073;SDS011;64776;42.636;24.358;2023-11-19T16:30:13;13.65;;;7.28;;
76073;SDS011;64776;42.636;24.358;2023-11-19T16:33:14;19.40;;;9.23;;
76073;SDS011;64776;42.636;24.358;2023-11-19T16:36:14;21.15;;;9.00;;
76073;SDS011;64776;42.636;24.358;2023-11-19T16:39:17;14.80;;;6.35;;
76073;SDS011;64776;42.636;24.358;2023-11-19T16:42:17;10.00;;;4.22;;
76073;SDS011;64776;42.636;24.358;2023-11-19T16:45:18;11.77;;;6.70;;
76073;SDS011;64776;42.636;24.358;2023-11-19T16:48:19;23.38;;;12.02;;
76073;SDS011;64776;42.636;24.358;2023-11-19T16:51:19;73.40;;;30.70;;
76073;SDS011;64776;42.636;24.358;2023-11-19T16:54:22;120.43;;;48.60;;
76073;SDS011;64776;42.636;24.358;2023-11-19T16:57:22;51.78;;;21.05;;
76073;SDS011;64776;42.636;24.358;2023-11-19T17:00:23;45.28;;;19.38;;
76073;SDS011;64776;42.636;24.358;2023-11-19T17:03:24;8.07;;;4.45;;
76073;SDS011;64776;42.636;24.358;2023-11-19T17:06:25;30.20;;;10.85;;
76073;SDS011;64776;42.636;24.358;2023-11-19T17:09:27;45.45;;;20.35;;
76073;SDS011;64776;42.636;24.358;2023-11-19T17:12:28;59.00;;;28.70;;
76073;SDS011;64776;42.636;24.358;2023-11-19T17:15:29;15.05;;;5.07;;
76073;SDS011;64776;42.636;24.358;2023-11-19T17:18:31;22.15;;;13.55;;
76073;SDS011;64776;42.636;24.358;2023-11-19T17:21:31;17.85;;;7.22;;
76073;SDS011;64776;42.636;24.358;2023-11-19T17:24:34;30.70;;;12.02;;
76073;SDS011;64776;42.636;24.358;2023-11-19T17:27:34;15.55;;;6.38;;
76073;SDS011;64776;42.636;24.358;2023-11-19T17:30:36;26.40;;;13.30;;
76073;SDS011;64776;42.636;24.358;2023-11-19T17:33:45;48.58;;;23.65;;
76073;SDS011;64776;42.636;24.358;2023-11-19T17:36:46;106.07;;;41.45;;
76073;SDS011;64776;42.636;24.358;2023-11-19T17:39:48;220.35;;;83.78;;
76073;SDS011;64776;42.636;24.358;2023-11-19T17:42:48;245.30;;;101.82;;
76073;SDS011;64776;42.636;24.358;2023-11-19T17:45:49;90.20;;;37.50;;
76073;SDS011;64776;42.636;24.358;2023-11-19T17:48:50;133.98;;;46.00;;
76073;SDS011;64776;42.636;24.358;2023-11-19T17:51:51;86.72;;;50.53;;
76073;SDS011;64776;42.636;24.358;2023-11-19T17:54:53;15.13;;;6.68;;
76073;SDS011;64776;42.636;24.358;2023-11-19T17:57:54;7.45;;;3.90;;
76073;SDS011;64776;42.636;24.358;2023-11-19T18:00:54;15.52;;;7.65;;
76073;SDS011;64776;42.636;24.358;2023-11-19T18:03:55;20.13;;;9.82;;
76073;SDS011;64776;42.636;24.358;2023-11-19T18:06:57;32.17;;;16.27;;
76073;SDS011;64776;42.636;24.358;2023-11-19T18:09:59;35.28;;;18.98;;
76073;SDS011;64776;42.636;24.358;2023-11-19T18:12:59;26.88;;;14.30;;
76073;SDS011;64776;42.636;24.358;2023-11-19T18:16:00;10.93;;;5.75;;
76073;SDS011;64776;42.636;24.358;2023-11-19T18:19:01;10.90;;;2.75;;
76073;SDS011;64776;42.636;24.358;2023-11-19T18:22:02;23.83;;;9.38;;